Time;durP1;ratioP1;P1;durP2;ratioP2;P2;SDS_P1;SDS_P2;PMS_P1;PMS_P2;Temp;Humidity;BMP_temperature;BMP_pressure;BME280_temperature;BME280_humidity;BME280_pressure;Samples;Min_cycle;Max_cycle;Signal;HPM_P1;HPM_P2
2023/09/17 00:00:38;;;;;;;5.07;4.47;;;;;;;;;;5014549;28;20223;-57
2023/09/17 00:03:04;;;;;;;4.80;4.40;;;;;;;;;;5014867;28;20239;-57
2023/09/17 00:05:32;;;;;;;5.13;4.63;;;;;;;;;;5014610;28;20670;-57
2023/09/17 00:07:58;;;;;;;5.07;4.57;;;;;;;;;;5014434;28;20203;-56
2023/09/17 00:10:24;;;;;;;4.87;4.47;;;;;;;;;;5014565;28;20228;-57
2023/09/17 00:12:53;;;;;;;5.10;4.60;;;;;;;;;;5014517;28;20198;-57
2023/09/17 00:15:20;;;;;;;5.27;4.77;;;;;;;;;;5014631;28;20658;-57
2023/09/17 00:17:46;;;;;;;4.70;4.30;;;;;;;;;;5014367;28;20266;-57
2023/09/17 00:20:13;;;;;;;5.30;4.80;;;;;;;;;;5014434;28;20250;-57
2023/09/17 00:22:39;;;;;;;5.23;4.73;;;;;;;;;;5014235;28;20199;-57
2023/09/17 00:25:05;;;;;;;5.07;4.57;;;;;;;;;;5014324;28;20245;-57
2023/09/17 00:27:32;;;;;;;5.27;4.77;;;;;;;;;;5014311;28;20322;-57
2023/09/17 00:29:58;;;;;;;5.70;4.93;;;;;;;;;;5014171;28;20199;-57
2023/09/17 00:32:25;;;;;;;5.50;5.00;;;;;;;;;;5014036;28;20210;-57
2023/09/17 00:34:51;;;;;;;5.80;5.30;;;;;;;;;;5013994;28;20221;-57
2023/09/17 00:37:18;;;;;;;5.50;5.00;;;;;;;;;;5013847;28;20722;-57
2023/09/17 00:39:44;;;;;;;4.93;4.53;;;;;;;;;;5013984;28;20206;-57
2023/09/17 00:42:10;;;;;;;5.10;4.70;;;;;;;;;;5013890;28;20199;-57
2023/09/17 00:44:37;;;;;;;5.53;5.10;;;;;;;;;;5013912;28;20225;-57
2023/09/17 00:47:04;;;;;;;6.50;5.50;;;;;;;;;;5014030;28;20197;-57
2023/09/17 00:49:32;;;;;;;6.03;5.43;;;;;;;;;;5013891;28;20203;-56
2023/09/17 00:51:59;;;;;;;6.73;5.63;;;;;;;;;;5013597;28;20570;-56
2023/09/17 00:54:26;;;;;;;5.83;5.33;;;;;;;;;;5013926;28;20199;-56
2023/09/17 00:56:52;;;;;;;6.23;5.70;;;;;;;;;;5013408;28;20217;-56
2023/09/17 00:59:19;;;;;;;6.33;5.83;;;;;;;;;;5013682;28;20214;-56
2023/09/17 01:01:45;;;;;;;6.70;6.10;;;;;;;;;;5013551;28;20680;-55
2023/09/17 01:04:12;;;;;;;7.23;6.53;;;;;;;;;;5013559;28;20225;-56
2023/09/17 01:06:40;;;;;;;6.57;5.97;;;;;;;;;;5013435;28;20249;-56
2023/09/17 01:09:09;;;;;;;6.80;6.20;;;;;;;;;;5012955;28;20304;-55
2023/09/17 01:11:36;;;;;;;8.57;6.63;;;;;;;;;;5013339;28;20678;-56
2023/09/17 01:14:12;;;;;;;7.40;6.70;;;;;;;;;;5013451;28;20269;-56
2023/09/17 01:16:38;;;;;;;7.87;7.17;;;;;;;;;;5013253;28;20226;-56
2023/09/17 01:19:04;;;;;;;8.20;7.23;;;;;;;;;;5013316;28;20207;-55
2023/09/17 01:21:31;;;;;;;7.93;7.13;;;;;;;;;;5013364;28;20200;-56
2023/09/17 01:24:05;;;;;;;8.47;7.27;;;;;;;;;;5013089;28;20211;-56
2023/09/17 01:26:33;;;;;;;7.63;6.93;;;;;;;;;;5013205;28;20201;-56
2023/09/17 01:29:00;;;;;;;10.80;7.70;;;;;;;;;;5013017;28;20270;-56
2023/09/17 01:31:27;;;;;;;8.53;7.73;;;;;;;;;;5013090;28;20205;-56
2023/09/17 01:33:53;;;;;;;8.73;7.93;;;;;;;;;;5012936;28;20680;-56
2023/09/17 01:36:21;;;;;;;9.10;8.20;;;;;;;;;;5013026;28;20249;-56
2023/09/17 01:38:49;;;;;;;8.60;7.67;;;;;;;;;;5012768;28;20715;-56
2023/09/17 01:41:15;;;;;;;8.47;7.57;;;;;;;;;;5012929;28;20201;-56
2023/09/17 01:43:44;;;;;;;8.57;7.77;;;;;;;;;;5012784;28;20202;-56
2023/09/17 01:46:11;;;;;;;8.73;7.83;;;;;;;;;;5012854;28;20206;-56
2023/09/17 01:48:38;;;;;;;9.50;8.70;;;;;;;;;;5012657;28;20204;-56
2023/09/17 01:51:04;;;;;;;8.80;7.90;;;;;;;;;;5012757;28;20276;-56
2023/09/17 01:53:31;;;;;;;9.50;8.53;;;;;;;;;;5012659;28;20204;-56
2023/09/17 01:55:57;;;;;;;9.00;8.10;;;;;;;;;;5012520;28;20263;-56
2023/09/17 01:58:23;;;;;;;8.47;7.67;;;;;;;;;;5012585;28;20203;-56
2023/09/17 02:00:52;;;;;;;9.03;8.20;;;;;;;;;;5012864;28;20265;-56
2023/09/17 02:03:19;;;;;;;9.20;8.30;;;;;;;;;;5012643;28;20266;-56
2023/09/17 02:05:45;;;;;;;8.80;7.97;;;;;;;;;;5012396;28;20270;-56
2023/09/17 02:08:12;;;;;;;9.00;8.20;;;;;;;;;;5012367;28;20193;-56
2023/09/17 02:10:37;;;;;;;9.57;8.53;;;;;;;;;;5012167;28;20196;-56
2023/09/17 02:13:04;;;;;;;8.77;7.97;;;;;;;;;;5012334;28;20544;-55
2023/09/17 02:15:30;;;;;;;8.97;8.20;;;;;;;;;;5012282;28;20202;-56
2023/09/17 02:17:56;;;;;;;8.70;7.43;;;;;;;;;;5012015;28;20610;-56
2023/09/17 02:20:23;;;;;;;8.60;7.70;;;;;;;;;;5011395;28;20204;-56
2023/09/17 02:22:50;;;;;;;8.80;8.00;;;;;;;;;;5012207;28;20599;-56
2023/09/17 02:25:17;;;;;;;8.63;7.83;;;;;;;;;;5012214;28;20696;-56
2023/09/17 02:27:43;;;;;;;8.60;7.80;;;;;;;;;;5012069;28;20287;-56
2023/09/17 02:30:10;;;;;;;8.63;7.87;;;;;;;;;;5012090;28;20209;-56
2023/09/17 02:32:39;;;;;;;7.53;6.93;;;;;;;;;;5012042;28;20680;-58
2023/09/17 02:35:06;;;;;;;6.90;6.30;;;;;;;;;;5011930;28;20780;-55
2023/09/17 02:37:34;;;;;;;7.40;6.70;;;;;;;;;;5011899;28;20705;-55
2023/09/17 02:40:00;;;;;;;8.20;7.40;;;;;;;;;;5011762;28;20285;-56
2023/09/17 02:42:26;;;;;;;8.27;7.40;;;;;;;;;;5011848;28;20193;-56
2023/09/17 02:44:52;;;;;;;7.67;6.97;;;;;;;;;;5011679;28;20230;-56
2023/09/17 02:47:18;;;;;;;6.77;6.17;;;;;;;;;;5012013;28;20605;-55
2023/09/17 02:49:44;;;;;;;7.63;6.93;;;;;;;;;;5011554;28;20259;-56
2023/09/17 02:52:10;;;;;;;7.17;6.57;;;;;;;;;;5011900;28;20201;-56
2023/09/17 02:54:38;;;;;;;7.77;7.07;;;;;;;;;;5011653;28;20282;-56
2023/09/17 02:57:04;;;;;;;7.00;6.40;;;;;;;;;;5011688;28;20284;-56
2023/09/17 02:59:30;;;;;;;7.10;6.50;;;;;;;;;;5011688;28;20228;-56
2023/09/17 03:01:56;;;;;;;6.80;6.20;;;;;;;;;;5011468;28;20231;-56
2023/09/17 03:04:26;;;;;;;7.50;6.50;;;;;;;;;;5011560;28;20218;-56
2023/09/17 03:06:52;;;;;;;7.30;6.37;;;;;;;;;;5011514;28;20276;-56
2023/09/17 03:09:18;;;;;;;6.67;6.07;;;;;;;;;;5011774;28;20224;-56
2023/09/17 03:11:46;;;;;;;7.47;6.77;;;;;;;;;;5011639;28;20207;-56
2023/09/17 03:14:12;;;;;;;7.53;6.83;;;;;;;;;;5011624;28;20229;-56
2023/09/17 03:16:38;;;;;;;7.63;6.93;;;;;;;;;;5011497;28;20230;-56
2023/09/17 03:19:04;;;;;;;6.90;6.20;;;;;;;;;;5011616;28;20195;-56
2023/09/17 03:21:30;;;;;;;7.23;6.53;;;;;;;;;;5011481;28;20199;-55
2023/09/17 03:23:56;;;;;;;8.30;6.53;;;;;;;;;;5011362;28;20258;-55
2023/09/17 03:26:22;;;;;;;7.70;7.07;;;;;;;;;;5011353;28;20580;-55
2023/09/17 03:28:50;;;;;;;6.93;6.33;;;;;;;;;;5011485;28;20712;-55
2023/09/17 03:31:16;;;;;;;6.70;6.00;;;;;;;;;;5011523;28;20203;-55
2023/09/17 03:33:42;;;;;;;6.73;6.20;;;;;;;;;;5015181;28;20223;-56
2023/09/17 03:36:08;;;;;;;6.73;6.23;;;;;;;;;;5014983;28;20217;-56
2023/09/17 03:38:34;;;;;;;7.07;6.47;;;;;;;;;;5015196;28;20288;-56
2023/09/17 03:41:00;;;;;;;6.90;6.30;;;;;;;;;;5015014;28;20560;-56
2023/09/17 03:43:29;;;;;;;6.83;6.20;;;;;;;;;;5015210;28;20215;-56
2023/09/17 03:45:57;;;;;;;7.33;6.63;;;;;;;;;;5015162;28;20238;-56
2023/09/17 03:48:23;;;;;;;7.10;6.50;;;;;;;;;;5015125;28;20199;-56
2023/09/17 03:50:49;;;;;;;6.70;6.10;;;;;;;;;;5015232;28;20198;-56
2023/09/17 03:53:15;;;;;;;6.83;6.23;;;;;;;;;;5015224;28;20547;-56
2023/09/17 03:55:42;;;;;;;7.77;7.07;;;;;;;;;;5014770;28;20574;-56
2023/09/17 03:58:08;;;;;;;7.30;6.70;;;;;;;;;;5014866;28;20309;-55
2023/09/17 04:00:35;;;;;;;6.70;6.10;;;;;;;;;;5014982;28;20224;-56
2023/09/17 04:03:05;;;;;;;7.43;6.83;;;;;;;;;;5014724;28;20240;-56
2023/09/17 04:05:31;;;;;;;6.90;6.30;;;;;;;;;;5014883;28;20245;-56
2023/09/17 04:07:57;;;;;;;7.60;6.90;;;;;;;;;;5014567;28;20189;-56
2023/09/17 04:10:24;;;;;;;6.97;6.37;;;;;;;;;;5014514;28;20244;-56
2023/09/17 04:12:50;;;;;;;7.47;6.73;;;;;;;;;;5014661;28;20205;-56
2023/09/17 04:15:19;;;;;;;8.47;6.20;;;;;;;;;;5014819;28;20198;-56
2023/09/17 04:17:45;;;;;;;7.40;6.73;;;;;;;;;;5014336;28;20230;-56
2023/09/17 04:20:18;;;;;;;6.73;6.23;;;;;;;;;;5014530;28;20192;-56
2023/09/17 04:22:44;;;;;;;6.97;6.37;;;;;;;;;;5014425;28;20238;-56
2023/09/17 04:25:11;;;;;;;6.87;6.23;;;;;;;;;;5014239;28;20658;-56
2023/09/17 04:27:40;;;;;;;7.53;6.83;;;;;;;;;;5014254;28;20227;-56
2023/09/17 04:30:06;;;;;;;7.03;6.30;;;;;;;;;;5014252;28;20206;-56
2023/09/17 04:32:37;;;;;;;7.80;6.33;;;;;;;;;;5014734;28;20291;-56
2023/09/17 04:35:05;;;;;;;6.60;6.00;;;;;;;;;;5014204;28;20236;-56
2023/09/17 04:37:32;;;;;;;6.40;5.87;;;;;;;;;;5012661;28;20235;-55
2023/09/17 04:39:58;;;;;;;6.70;6.20;;;;;;;;;;5013883;28;20214;-56
2023/09/17 04:42:25;;;;;;;7.10;6.40;;;;;;;;;;5014078;28;20206;-56
2023/09/17 04:44:51;;;;;;;7.50;6.90;;;;;;;;;;5013101;28;20278;-55
2023/09/17 04:47:17;;;;;;;7.23;6.63;;;;;;;;;;5014065;28;20187;-55
2023/09/17 04:49:43;;;;;;;6.60;6.00;;;;;;;;;;5013811;28;20278;-55
2023/09/17 04:52:09;;;;;;;7.00;6.40;;;;;;;;;;5013748;28;20211;-55
2023/09/17 04:54:37;;;;;;;6.60;6.10;;;;;;;;;;5013906;28;20226;-56
2023/09/17 04:57:04;;;;;;;6.80;6.20;;;;;;;;;;5013673;28;20235;-56
2023/09/17 04:59:30;;;;;;;6.57;6.07;;;;;;;;;;5013702;28;20804;-56
2023/09/17 05:01:56;;;;;;;7.23;6.63;;;;;;;;;;5013484;28;20552;-56
2023/09/17 05:04:24;;;;;;;7.10;6.40;;;;;;;;;;5013414;28;20301;-56
2023/09/17 05:06:50;;;;;;;6.70;6.13;;;;;;;;;;5013607;28;20200;-56
2023/09/17 05:09:16;;;;;;;6.90;6.30;;;;;;;;;;5013304;28;20258;-56
2023/09/17 05:11:43;;;;;;;7.10;6.40;;;;;;;;;;5012635;28;20205;-54
2023/09/17 05:14:10;;;;;;;7.47;6.50;;;;;;;;;;5013299;28;20220;-55
2023/09/17 05:16:38;;;;;;;6.50;6.00;;;;;;;;;;5013442;28;20208;-57
2023/09/17 05:19:04;;;;;;;8.17;6.30;;;;;;;;;;5013320;28;20243;-54
2023/09/17 05:21:30;;;;;;;7.50;6.70;;;;;;;;;;5013301;28;20239;-54
2023/09/17 05:23:56;;;;;;;7.10;6.50;;;;;;;;;;5013354;28;20200;-54
2023/09/17 05:26:23;;;;;;;6.70;6.10;;;;;;;;;;5011487;28;20200;-54
2023/09/17 05:28:50;;;;;;;7.17;6.53;;;;;;;;;;5012777;28;20681;-54
2023/09/17 05:31:16;;;;;;;7.17;6.47;;;;;;;;;;5012807;28;20609;-54
2023/09/17 05:33:42;;;;;;;6.73;6.23;;;;;;;;;;5012731;28;20198;-54
2023/09/17 05:36:08;;;;;;;7.90;7.10;;;;;;;;;;5012502;28;20221;-54
2023/09/17 05:38:34;;;;;;;7.40;6.80;;;;;;;;;;5012653;28;20279;-54
2023/09/17 05:41:01;;;;;;;6.43;5.90;;;;;;;;;;5012479;28;20201;-54
2023/09/17 05:43:27;;;;;;;6.70;6.03;;;;;;;;;;5012691;28;20202;-54
2023/09/17 05:45:58;;;;;;;6.27;5.77;;;;;;;;;;5012632;28;20207;-54
2023/09/17 05:48:24;;;;;;;6.63;6.03;;;;;;;;;;5012754;28;20206;-54
2023/09/17 05:50:50;;;;;;;6.23;5.63;;;;;;;;;;5012541;28;20232;-54
2023/09/17 05:53:16;;;;;;;6.20;5.70;;;;;;;;;;5012546;28;20199;-54
2023/09/17 05:55:42;;;;;;;7.73;7.03;;;;;;;;;;5012197;28;20368;-54
2023/09/17 05:58:08;;;;;;;6.50;5.90;;;;;;;;;;5012149;28;20234;-55
2023/09/17 06:00:34;;;;;;;7.23;6.63;;;;;;;;;;5012554;28;20666;-53
2023/09/17 06:03:01;;;;;;;6.77;6.13;;;;;;;;;;5012155;28;20240;-54
2023/09/17 06:05:27;;;;;;;7.10;6.40;;;;;;;;;;5012142;28;20212;-54
2023/09/17 06:07:54;;;;;;;6.60;6.00;;;;;;;;;;5012090;28;20202;-54
2023/09/17 06:10:20;;;;;;;7.00;6.40;;;;;;;;;;5012309;28;20272;-53
2023/09/17 06:12:46;;;;;;;7.07;6.40;;;;;;;;;;5012124;28;20203;-53
2023/09/17 06:15:12;;;;;;;7.20;6.60;;;;;;;;;;5011797;28;20205;-53
2023/09/17 06:17:39;;;;;;;7.67;6.17;;;;;;;;;;5011741;28;20254;-54
2023/09/17 06:20:08;;;;;;;7.20;6.50;;;;;;;;;;5011810;28;20224;-53
2023/09/17 06:22:34;;;;;;;7.33;6.73;;;;;;;;;;5011922;28;20221;-54
2023/09/17 06:25:00;;;;;;;6.53;5.93;;;;;;;;;;5011621;28;20199;-53
2023/09/17 06:27:26;;;;;;;6.67;5.70;;;;;;;;;;5011644;28;20208;-53
2023/09/17 06:29:52;;;;;;;7.37;6.67;;;;;;;;;;5011671;28;20205;-53
2023/09/17 06:32:18;;;;;;;7.20;6.50;;;;;;;;;;5011914;28;20299;-53
2023/09/17 06:34:44;;;;;;;6.50;6.00;;;;;;;;;;5011566;28;20227;-54
2023/09/17 06:37:12;;;;;;;7.23;6.53;;;;;;;;;;5011266;28;20591;-53
2023/09/17 06:39:38;;;;;;;7.63;6.93;;;;;;;;;;5011574;28;20720;-54
2023/09/17 06:42:04;;;;;;;6.83;6.20;;;;;;;;;;5011578;28;20195;-53
2023/09/17 06:44:30;;;;;;;7.10;6.50;;;;;;;;;;5011389;28;20197;-54
2023/09/17 06:46:56;;;;;;;6.33;5.73;;;;;;;;;;5011315;28;20201;-53
2023/09/17 06:49:22;;;;;;;7.37;6.67;;;;;;;;;;5011248;28;20544;-53
2023/09/17 06:51:50;;;;;;;7.53;6.53;;;;;;;;;;5011136;28;20211;-53
2023/09/17 06:54:17;;;;;;;6.90;6.30;;;;;;;;;;5011076;28;20204;-53
2023/09/17 06:56:43;;;;;;;8.83;6.60;;;;;;;;;;5010756;28;20204;-53
2023/09/17 06:59:09;;;;;;;6.53;5.90;;;;;;;;;;5010829;28;20263;-54
2023/09/17 07:01:36;;;;;;;7.20;6.50;;;;;;;;;;5011056;28;20200;-53
2023/09/17 07:04:02;;;;;;;6.17;5.67;;;;;;;;;;5011031;28;20285;-54
2023/09/17 07:06:28;;;;;;;6.50;5.90;;;;;;;;;;5010247;28;20207;-54
2023/09/17 07:08:55;;;;;;;6.67;6.07;;;;;;;;;;5010787;28;20192;-54
2023/09/17 07:11:23;;;;;;;6.83;6.23;;;;;;;;;;5011129;28;20220;-54
2023/09/17 07:13:49;;;;;;;6.97;6.37;;;;;;;;;;5010875;28;20292;-54
2023/09/17 07:16:17;;;;;;;7.57;6.50;;;;;;;;;;5010735;28;20295;-54
2023/09/17 07:18:44;;;;;;;7.47;6.77;;;;;;;;;;5010674;28;20233;-54
2023/09/17 07:21:10;;;;;;;6.67;6.07;;;;;;;;;;5010582;28;20205;-53
2023/09/17 07:23:36;;;;;;;6.73;6.20;;;;;;;;;;5010892;28;20201;-54
2023/09/17 07:26:03;;;;;;;6.80;6.20;;;;;;;;;;5010869;28;20189;-53
2023/09/17 07:28:31;;;;;;;7.00;6.30;;;;;;;;;;5010785;28;20201;-54
2023/09/17 07:30:57;;;;;;;6.47;5.93;;;;;;;;;;5010587;28;20205;-54
2023/09/17 07:33:23;;;;;;;7.43;6.73;;;;;;;;;;5010907;28;20205;-53
2023/09/17 07:35:49;;;;;;;6.97;6.27;;;;;;;;;;5010682;28;20790;-54
2023/09/17 07:38:15;;;;;;;6.70;6.10;;;;;;;;;;5010315;28;20602;-54
2023/09/17 07:40:42;;;;;;;6.63;6.10;;;;;;;;;;5010495;28;20745;-54
2023/09/17 07:43:08;;;;;;;7.00;6.40;;;;;;;;;;5010403;28;20683;-54
2023/09/17 07:45:35;;;;;;;6.63;6.13;;;;;;;;;;5010699;28;20205;-54
2023/09/17 07:48:03;;;;;;;7.03;6.33;;;;;;;;;;5010572;28;20202;-54
2023/09/17 07:50:29;;;;;;;7.80;6.40;;;;;;;;;;5010368;28;20754;-54
2023/09/17 07:52:55;;;;;;;6.97;6.20;;;;;;;;;;5010396;28;20501;-54
2023/09/17 07:55:21;;;;;;;6.90;6.30;;;;;;;;;;5009110;28;20596;-54
2023/09/17 07:57:47;;;;;;;6.40;5.80;;;;;;;;;;5010273;28;20321;-54
2023/09/17 08:00:15;;;;;;;6.57;6.07;;;;;;;;;;5010220;28;20660;-54
2023/09/17 08:02:44;;;;;;;6.80;6.20;;;;;;;;;;5010194;28;20305;-55
2023/09/17 08:05:10;;;;;;;6.47;5.90;;;;;;;;;;5010309;28;20209;-55
2023/09/17 08:07:36;;;;;;;6.20;5.63;;;;;;;;;;5010287;28;20201;-55
2023/09/17 08:10:03;;;;;;;6.80;5.50;;;;;;;;;;5010328;28;20197;-55
2023/09/17 08:12:31;;;;;;;5.30;4.90;;;;;;;;;;5009994;28;20284;-55
2023/09/17 08:14:57;;;;;;;5.97;5.37;;;;;;;;;;5010003;28;20205;-55
2023/09/17 08:17:23;;;;;;;8.53;4.80;;;;;;;;;;5010116;28;20230;-54
2023/09/17 08:19:51;;;;;;;6.67;5.10;;;;;;;;;;5012587;28;20197;-54
2023/09/17 08:22:17;;;;;;;5.50;5.10;;;;;;;;;;5013808;28;20228;-54
2023/09/17 08:24:43;;;;;;;7.10;5.13;;;;;;;;;;5013491;28;20202;-54
2023/09/17 08:27:10;;;;;;;5.40;4.90;;;;;;;;;;5013319;28;20566;-54
2023/09/17 08:29:36;;;;;;;6.63;5.57;;;;;;;;;;5013456;28;20220;-54
2023/09/17 08:32:03;;;;;;;5.00;4.60;;;;;;;;;;5013338;28;20201;-54
2023/09/17 08:34:29;;;;;;;5.57;5.07;;;;;;;;;;5013188;28;20663;-54
2023/09/17 08:36:57;;;;;;;6.03;5.10;;;;;;;;;;5013072;28;20257;-54
2023/09/17 08:39:23;;;;;;;4.87;4.40;;;;;;;;;;5012863;28;20298;-54
2023/09/17 08:41:49;;;;;;;4.87;4.40;;;;;;;;;;5013143;28;20211;-54
2023/09/17 08:44:17;;;;;;;5.07;4.30;;;;;;;;;;5013321;28;20211;-54
2023/09/17 08:46:43;;;;;;;4.70;4.30;;;;;;;;;;5011697;28;20199;-54
2023/09/17 08:49:10;;;;;;;5.47;4.97;;;;;;;;;;5012751;28;20200;-54
2023/09/17 08:51:38;;;;;;;5.07;4.57;;;;;;;;;;5012959;28;20203;-54
2023/09/17 08:54:06;;;;;;;5.10;4.60;;;;;;;;;;5012746;28;20681;-54
2023/09/17 08:56:34;;;;;;;5.50;5.00;;;;;;;;;;5012863;28;20252;-54
2023/09/17 08:59:01;;;;;;;4.50;4.20;;;;;;;;;;5012680;28;20223;-54
2023/09/17 09:01:28;;;;;;;5.40;4.77;;;;;;;;;;5012666;28;20684;-54
2023/09/17 09:03:54;;;;;;;5.30;4.37;;;;;;;;;;5012640;28;20252;-54
2023/09/17 09:06:20;;;;;;;5.00;4.07;;;;;;;;;;5012669;28;20607;-54
2023/09/17 09:08:48;;;;;;;4.93;4.50;;;;;;;;;;5012701;28;20198;-54
2023/09/17 09:11:16;;;;;;;5.13;4.73;;;;;;;;;;5012322;28;20280;-54
2023/09/17 09:13:42;;;;;;;4.87;4.37;;;;;;;;;;5011333;28;20614;-54
2023/09/17 09:16:08;;;;;;;4.30;3.90;;;;;;;;;;5012609;28;20416;-54
2023/09/17 09:18:37;;;;;;;4.67;4.27;;;;;;;;;;5012672;28;20231;-55
2023/09/17 09:21:04;;;;;;;4.30;3.90;;;;;;;;;;5012456;28;20202;-53
2023/09/17 09:23:30;;;;;;;4.20;3.90;;;;;;;;;;5012495;28;20199;-53
2023/09/17 09:25:56;;;;;;;4.97;4.50;;;;;;;;;;5012133;28;20344;-53
2023/09/17 09:28:24;;;;;;;4.80;4.40;;;;;;;;;;5012296;28;20209;-53
2023/09/17 09:30:50;;;;;;;4.53;4.13;;;;;;;;;;5011992;28;20207;-53
2023/09/17 09:33:20;;;;;;;4.73;4.17;;;;;;;;;;5012356;28;20199;-53
2023/09/17 09:35:47;;;;;;;4.20;3.90;;;;;;;;;;5012035;28;20589;-53
2023/09/17 09:38:13;;;;;;;6.50;4.00;;;;;;;;;;5011738;28;20402;-53
2023/09/17 09:40:41;;;;;;;4.87;4.07;;;;;;;;;;5011908;28;20205;-53
2023/09/17 09:43:16;;;;;;;4.53;4.13;;;;;;;;;;5011801;28;20553;-53
2023/09/17 09:45:44;;;;;;;4.40;4.00;;;;;;;;;;5010492;28;20207;-53
2023/09/17 09:48:13;;;;;;;4.03;3.63;;;;;;;;;;5011919;28;20208;-53
2023/09/17 09:50:40;;;;;;;4.80;4.03;;;;;;;;;;5011674;28;20285;-53
2023/09/17 09:53:06;;;;;;;6.73;5.53;;;;;;;;;;5011777;28;20194;-53
2023/09/17 09:55:32;;;;;;;5.43;4.93;;;;;;;;;;5011781;28;20199;-53
2023/09/17 09:57:59;;;;;;;9.90;8.30;;;;;;;;;;5011483;28;20642;-53
2023/09/17 10:00:29;;;;;;;6.57;5.97;;;;;;;;;;5011597;28;20387;-53
2023/09/17 10:02:56;;;;;;;4.90;4.40;;;;;;;;;;5011515;28;20202;-53
2023/09/17 10:05:31;;;;;;;8.00;7.30;;;;;;;;;;5011588;28;20292;-53
2023/09/17 10:07:57;;;;;;;4.90;4.50;;;;;;;;;;5011309;28;20567;-53
2023/09/17 10:10:24;;;;;;;4.80;4.27;;;;;;;;;;5011375;28;20206;-53
2023/09/17 10:12:52;;;;;;;8.53;7.63;;;;;;;;;;5011571;28;20193;-53
2023/09/17 10:15:18;;;;;;;5.63;4.83;;;;;;;;;;5011562;28;20703;-53
2023/09/17 10:17:45;;;;;;;6.63;4.43;;;;;;;;;;5011084;28;20308;-54
2023/09/17 10:20:18;;;;;;;4.67;4.27;;;;;;;;;;5011178;28;20193;-54
2023/09/17 10:22:47;;;;;;;6.00;4.20;;;;;;;;;;5011103;28;20202;-53
2023/09/17 10:25:16;;;;;;;4.73;4.33;;;;;;;;;;5011216;28;20229;-53
2023/09/17 10:27:43;;;;;;;4.83;4.43;;;;;;;;;;5011332;28;20276;-53
2023/09/17 10:30:10;;;;;;;5.23;4.63;;;;;;;;;;5010946;28;20203;-53
2023/09/17 10:32:37;;;;;;;4.87;4.40;;;;;;;;;;5011493;28;20201;-53
2023/09/17 10:35:05;;;;;;;4.97;4.47;;;;;;;;;;5011191;28;20716;-54
2023/09/17 10:37:32;;;;;;;5.07;4.57;;;;;;;;;;5011144;28;20306;-53
2023/09/17 10:40:00;;;;;;;5.03;4.50;;;;;;;;;;5011005;28;20203;-53
2023/09/17 10:42:27;;;;;;;5.13;4.63;;;;;;;;;;5008972;28;20281;-54
2023/09/17 10:44:54;;;;;;;4.70;4.27;;;;;;;;;;5010907;28;20209;-53
2023/09/17 10:47:21;;;;;;;5.20;4.80;;;;;;;;;;5011279;28;20212;-54
2023/09/17 10:49:47;;;;;;;4.40;3.97;;;;;;;;;;5011125;28;20225;-53
2023/09/17 10:52:14;;;;;;;5.23;4.73;;;;;;;;;;5010775;28;20229;-54
2023/09/17 10:54:41;;;;;;;5.23;4.73;;;;;;;;;;5010926;28;20240;-54
2023/09/17 10:57:10;;;;;;;5.07;4.60;;;;;;;;;;5010700;28;20275;-54
2023/09/17 10:59:36;;;;;;;5.17;4.67;;;;;;;;;;5010985;28;20194;-54
2023/09/17 11:02:02;;;;;;;4.87;4.47;;;;;;;;;;5010826;28;20202;-54
2023/09/17 11:04:29;;;;;;;5.80;5.20;;;;;;;;;;5010840;28;20204;-53
2023/09/17 11:06:56;;;;;;;5.67;4.63;;;;;;;;;;5010803;28;20565;-54
2023/09/17 11:09:22;;;;;;;5.50;4.30;;;;;;;;;;5010669;28;20548;-54
2023/09/17 11:11:49;;;;;;;4.40;4.10;;;;;;;;;;5011140;28;20336;-54
2023/09/17 11:14:15;;;;;;;4.70;4.30;;;;;;;;;;5010619;28;20207;-54
2023/09/17 11:16:42;;;;;;;6.43;4.60;;;;;;;;;;5010941;28;20724;-54
2023/09/17 11:19:09;;;;;;;5.37;4.27;;;;;;;;;;5011063;28;20222;-54
2023/09/17 11:21:36;;;;;;;4.80;4.27;;;;;;;;;;5011381;28;20205;-54
2023/09/17 11:24:06;;;;;;;4.97;4.50;;;;;;;;;;5011177;28;20196;-54
2023/09/17 11:26:32;;;;;;;5.87;4.23;;;;;;;;;;5011073;28;20731;-54
2023/09/17 11:29:03;;;;;;;4.40;4.00;;;;;;;;;;5010972;28;20283;-54
2023/09/17 11:31:32;;;;;;;4.63;4.23;;;;;;;;;;5011134;28;20233;-54
2023/09/17 11:33:58;;;;;;;5.23;4.13;;;;;;;;;;5010662;28;20568;-54
2023/09/17 11:36:26;;;;;;;4.70;4.13;;;;;;;;;;5010779;28;20607;-54
2023/09/17 11:38:52;;;;;;;4.83;4.30;;;;;;;;;;5010333;28;20241;-53
2023/09/17 11:41:26;;;;;;;4.53;4.13;;;;;;;;;;5010871;28;20201;-54
2023/09/17 11:43:52;;;;;;;5.17;4.20;;;;;;;;;;5010803;28;20203;-53
2023/09/17 11:46:20;;;;;;;6.00;4.17;;;;;;;;;;5010802;28;20576;-54
2023/09/17 11:48:46;;;;;;;7.03;3.93;;;;;;;;;;5010636;28;20746;-53
2023/09/17 11:51:20;;;;;;;3.97;3.67;;;;;;;;;;5010560;28;20679;-54
2023/09/17 11:53:50;;;;;;;5.53;3.73;;;;;;;;;;5012836;28;20651;-54
2023/09/17 11:56:16;;;;;;;5.10;3.80;;;;;;;;;;5014354;28;20194;-53
2023/09/17 11:58:43;;;;;;;3.83;3.43;;;;;;;;;;5014223;28;20225;-53
2023/09/17 12:01:09;;;;;;;3.93;3.63;;;;;;;;;;5014199;28;20208;-54
2023/09/17 12:03:36;;;;;;;3.53;3.23;;;;;;;;;;5014337;28;20220;-54
2023/09/17 12:06:04;;;;;;;3.97;3.60;;;;;;;;;;5014259;28;20225;-53
2023/09/17 12:08:31;;;;;;;4.33;3.60;;;;;;;;;;5014236;28;20252;-53
2023/09/17 12:11:02;;;;;;;4.00;3.70;;;;;;;;;;5013933;28;20227;-54
2023/09/17 12:13:33;;;;;;;5.30;3.70;;;;;;;;;;5014252;28;20202;-53
2023/09/17 12:16:00;;;;;;;3.77;3.37;;;;;;;;;;5013992;28;20213;-54
2023/09/17 12:18:26;;;;;;;3.90;3.37;;;;;;;;;;5013950;28;20226;-54
2023/09/17 12:20:59;;;;;;;3.93;3.53;;;;;;;;;;5014096;28;20195;-54
2023/09/17 12:23:37;;;;;;;3.70;3.40;;;;;;;;;;5013899;28;20231;-54
2023/09/17 12:26:03;;;;;;;3.93;3.53;;;;;;;;;;5013851;28;20211;-54
2023/09/17 12:28:29;;;;;;;3.93;3.57;;;;;;;;;;5013797;28;20207;-54
2023/09/17 12:30:55;;;;;;;3.83;3.53;;;;;;;;;;5013639;28;20204;-54
2023/09/17 12:33:22;;;;;;;4.10;3.70;;;;;;;;;;5013889;28;20209;-54
2023/09/17 12:35:48;;;;;;;3.63;3.33;;;;;;;;;;5013686;28;20634;-54
2023/09/17 12:38:15;;;;;;;3.90;3.40;;;;;;;;;;5013215;28;20779;-54
2023/09/17 12:40:41;;;;;;;3.77;3.47;;;;;;;;;;5013390;28;20610;-54
2023/09/17 12:43:08;;;;;;;7.33;3.90;;;;;;;;;;5013432;28;20210;-54
2023/09/17 12:45:34;;;;;;;3.70;3.40;;;;;;;;;;5013675;28;20199;-54
2023/09/17 12:48:00;;;;;;;5.37;3.90;;;;;;;;;;5013313;28;20656;-54
2023/09/17 12:50:27;;;;;;;3.73;3.43;;;;;;;;;;5013158;28;20206;-55
2023/09/17 12:52:54;;;;;;;4.93;3.80;;;;;;;;;;5013111;28;20204;-55
2023/09/17 12:55:21;;;;;;;4.40;3.30;;;;;;;;;;5013090;28;20203;-54
2023/09/17 12:57:48;;;;;;;3.70;3.40;;;;;;;;;;5013016;28;20239;-54
2023/09/17 13:00:14;;;;;;;3.57;3.27;;;;;;;;;;5012851;28;20574;-54
2023/09/17 13:02:40;;;;;;;4.07;3.17;;;;;;;;;;5012814;28;20231;-54
2023/09/17 13:05:08;;;;;;;5.20;3.73;;;;;;;;;;5011940;28;20200;-54
2023/09/17 13:07:36;;;;;;;4.93;3.47;;;;;;;;;;5012815;28;20619;-54
2023/09/17 13:10:03;;;;;;;3.87;3.57;;;;;;;;;;5012860;28;20204;-54
2023/09/17 13:12:30;;;;;;;3.80;3.50;;;;;;;;;;5012577;28;20212;-54
2023/09/17 13:14:56;;;;;;;5.73;3.20;;;;;;;;;;5012648;28;20730;-54
2023/09/17 13:17:23;;;;;;;5.27;3.23;;;;;;;;;;5012566;28;20232;-55
2023/09/17 13:19:50;;;;;;;3.63;3.30;;;;;;;;;;5012700;28;20205;-54
2023/09/17 13:22:16;;;;;;;3.50;3.17;;;;;;;;;;5012561;28;20280;-54
2023/09/17 13:24:45;;;;;;;3.03;2.70;;;;;;;;;;5012450;28;20211;-55
2023/09/17 13:27:11;;;;;;;3.63;3.33;;;;;;;;;;5012384;28;20308;-54
2023/09/17 13:29:41;;;;;;;4.40;3.40;;;;;;;;;;5012457;28;20200;-54
2023/09/17 13:32:11;;;;;;;3.33;3.10;;;;;;;;;;5012346;28;20240;-54
2023/09/17 13:34:37;;;;;;;3.23;2.90;;;;;;;;;;5012259;28;20542;-54
2023/09/17 13:37:04;;;;;;;6.10;3.47;;;;;;;;;;5012262;28;20197;-55
2023/09/17 13:39:30;;;;;;;5.57;3.13;;;;;;;;;;5012477;28;20587;-55
2023/09/17 13:41:56;;;;;;;3.30;3.00;;;;;;;;;;5012446;28;20201;-54
2023/09/17 13:44:23;;;;;;;3.67;3.37;;;;;;;;;;5012116;28;20689;-55
2023/09/17 13:46:50;;;;;;;3.50;3.20;;;;;;;;;;5012318;28;20232;-55
2023/09/17 13:49:16;;;;;;;5.50;3.50;;;;;;;;;;5011906;28;20228;-54
2023/09/17 13:51:42;;;;;;;3.13;2.93;;;;;;;;;;5012028;28;20197;-55
2023/09/17 13:54:08;;;;;;;4.10;3.40;;;;;;;;;;5011882;28;20200;-54
2023/09/17 13:56:34;;;;;;;3.90;2.83;;;;;;;;;;5012118;28;20200;-54
2023/09/17 13:59:00;;;;;;;4.77;3.60;;;;;;;;;;5011949;28;20245;-55
2023/09/17 14:01:26;;;;;;;4.00;3.30;;;;;;;;;;5011979;28;20250;-55
2023/09/17 14:03:54;;;;;;;4.53;3.30;;;;;;;;;;5011884;28;20209;-55
2023/09/17 14:06:20;;;;;;;3.03;2.73;;;;;;;;;;5011899;28;20651;-55
2023/09/17 14:08:46;;;;;;;3.70;3.40;;;;;;;;;;5011724;28;20296;-55
2023/09/17 14:11:12;;;;;;;3.00;2.80;;;;;;;;;;5011513;28;20231;-55
2023/09/17 14:13:39;;;;;;;4.60;3.17;;;;;;;;;;5011589;28;20279;-55
2023/09/17 14:16:05;;;;;;;4.30;3.27;;;;;;;;;;5011590;28;20241;-55
2023/09/17 14:18:31;;;;;;;3.77;2.90;;;;;;;;;;5011672;28;20288;-55
2023/09/17 14:21:00;;;;;;;4.70;2.90;;;;;;;;;;5011318;28;20923;-54
2023/09/17 14:23:26;;;;;;;5.20;3.40;;;;;;;;;;5011463;28;20294;-55
2023/09/17 14:25:52;;;;;;;5.20;3.17;;;;;;;;;;5011464;28;20199;-55
2023/09/17 14:28:18;;;;;;;5.10;3.27;;;;;;;;;;5011259;28;20253;-55
2023/09/17 14:30:44;;;;;;;3.47;2.93;;;;;;;;;;5011251;28;20614;-55
2023/09/17 14:33:10;;;;;;;3.43;3.10;;;;;;;;;;5011201;28;20195;-55
2023/09/17 14:35:36;;;;;;;4.27;3.40;;;;;;;;;;5011352;28;20584;-55
2023/09/17 14:38:03;;;;;;;3.47;3.17;;;;;;;;;;5010828;28;20758;-55
2023/09/17 14:40:29;;;;;;;3.43;3.10;;;;;;;;;;5011350;28;20227;-54